createdAt,value
2018-05-19T00:00:29.416Z,24.37
2018-05-19T00:02:57.766Z,26.62
2018-05-19T00:05:25.227Z,25.20
2018-05-19T00:07:52.716Z,25.50
2018-05-19T00:10:20.190Z,23.30
2018-05-19T00:12:47.693Z,19.73
2018-05-19T00:15:15.376Z,21.83
2018-05-19T00:17:43.603Z,22.20
2018-05-19T00:20:11.080Z,23.25
2018-05-19T00:22:43.896Z,26.13
2018-05-19T00:25:11.376Z,23.42
2018-05-19T00:27:38.853Z,23.47
2018-05-19T00:30:06.348Z,26.20
2018-05-19T00:32:33.820Z,24.00
2018-05-19T00:35:01.297Z,25.77
2018-05-19T00:37:28.779Z,24.43
2018-05-19T00:39:56.247Z,25.70
2018-05-19T00:42:23.736Z,23.90
2018-05-19T00:44:51.228Z,24.97
2018-05-19T00:47:18.689Z,22.55
2018-05-19T00:49:46.169Z,25.33
2018-05-19T00:52:13.640Z,26.87
2018-05-19T00:54:52.741Z,25.30
2018-05-19T00:57:20.215Z,27.00
2018-05-19T00:59:47.699Z,26.97
2018-05-19T01:02:15.252Z,30.10
2018-05-19T01:04:42.725Z,34.00
2018-05-19T01:07:10.209Z,28.53
2018-05-19T01:09:37.679Z,33.92
2018-05-19T01:12:05.173Z,33.67
2018-05-19T01:14:32.650Z,33.00
2018-05-19T01:17:00.126Z,33.25
2018-05-19T01:19:27.619Z,34.77
2018-05-19T01:21:55.092Z,33.53
2018-05-19T01:24:22.579Z,32.10
2018-05-19T01:26:50.047Z,34.27
2018-05-19T01:29:18.376Z,36.33
2018-05-19T01:31:45.865Z,38.27
2018-05-19T01:34:13.352Z,33.03
2018-05-19T01:36:40.844Z,31.83
2018-05-19T01:39:08.314Z,32.27
2018-05-19T01:41:35.808Z,33.80
2018-05-19T01:44:03.285Z,34.50
2018-05-19T01:46:30.772Z,35.77
2018-05-19T01:48:58.231Z,33.55
2018-05-19T01:51:25.707Z,31.30
2018-05-19T01:53:53.187Z,27.27
2018-05-19T01:56:20.652Z,28.87
2018-05-19T01:58:48.143Z,30.80
2018-05-19T02:01:15.607Z,32.43
2018-05-19T02:03:43.096Z,35.92
2018-05-19T02:06:10.594Z,33.10
2018-05-19T02:08:38.061Z,31.90
2018-05-19T02:11:05.570Z,30.07
2018-05-19T02:13:33.059Z,30.55
2018-05-19T02:16:00.532Z,31.40
2018-05-19T02:18:28.024Z,29.73
2018-05-19T02:20:55.516Z,32.47
2018-05-19T02:23:23.000Z,30.20
2018-05-19T02:25:50.471Z,28.40
2018-05-19T02:28:18.596Z,27.42
2018-05-19T02:30:46.101Z,28.33
2018-05-19T02:33:13.588Z,28.63
2018-05-19T02:35:41.295Z,29.17
2018-05-19T02:38:08.768Z,32.50
2018-05-19T02:40:36.256Z,34.80
2018-05-19T02:43:03.722Z,34.30
2018-05-19T02:45:31.383Z,35.20
2018-05-19T02:47:58.920Z,38.47
2018-05-19T02:50:26.359Z,40.72
2018-05-19T02:52:53.826Z,41.27
2018-05-19T02:55:21.295Z,38.90
2018-05-19T02:57:48.797Z,41.58
2018-05-19T03:00:16.292Z,37.47
2018-05-19T03:02:43.772Z,43.53
2018-05-19T03:05:11.256Z,48.20
2018-05-19T03:07:38.781Z,49.92
2018-05-19T03:10:06.252Z,44.80
2018-05-19T03:12:33.733Z,45.87
2018-05-19T03:15:01.243Z,46.50
2018-05-19T03:17:28.715Z,46.83
2018-05-19T03:19:56.196Z,47.03
2018-05-19T03:22:23.659Z,48.53
2018-05-19T03:24:51.177Z,48.47
2018-05-19T03:27:18.655Z,50.70
2018-05-19T03:29:46.130Z,45.83
2018-05-19T03:32:13.621Z,43.60
2018-05-19T03:34:41.094Z,46.53
2018-05-19T03:37:08.590Z,46.20
2018-05-19T03:39:36.061Z,47.30
2018-05-19T03:42:03.563Z,41.97
2018-05-19T03:44:31.049Z,43.03
2018-05-19T03:46:58.535Z,44.20
2018-05-19T03:49:26.031Z,42.70
2018-05-19T03:51:53.500Z,46.70
2018-05-19T03:54:21.006Z,47.10
2018-05-19T03:56:48.480Z,42.10
2018-05-19T03:59:27.575Z,41.03
2018-05-19T04:02:06.735Z,43.83
2018-05-19T04:04:34.226Z,39.80
2018-05-19T04:07:01.699Z,39.90
2018-05-19T04:09:29.223Z,38.60
2018-05-19T04:11:56.687Z,38.77
2018-05-19T04:14:24.155Z,37.00
2018-05-19T04:16:51.645Z,38.77
2018-05-19T04:19:19.140Z,37.93
2018-05-19T04:21:46.632Z,41.28
2018-05-19T04:24:14.104Z,41.70
2018-05-19T04:26:41.608Z,39.15
2018-05-19T04:29:09.072Z,37.30
2018-05-19T04:31:36.533Z,37.60
2018-05-19T04:34:04.028Z,41.20
2018-05-19T04:36:31.503Z,37.10
2018-05-19T04:38:58.992Z,39.47
2018-05-19T04:41:26.462Z,33.40
2018-05-19T04:43:53.931Z,33.27
2018-05-19T04:46:21.421Z,32.33
2018-05-19T04:48:48.928Z,29.35
2018-05-19T04:51:16.417Z,31.30
2018-05-19T04:53:43.888Z,29.77
2018-05-19T04:56:11.364Z,28.80
2018-05-19T04:58:38.853Z,26.20
2018-05-19T05:01:06.328Z,24.43
2018-05-19T05:03:33.817Z,24.07
2018-05-19T05:06:01.284Z,25.23
2018-05-19T05:08:28.778Z,22.30
2018-05-19T05:10:56.263Z,22.40
2018-05-19T05:13:23.736Z,26.50
2018-05-19T05:15:51.223Z,25.70
2018-05-19T05:18:18.694Z,20.73
2018-05-19T05:20:46.199Z,25.27
2018-05-19T05:23:13.737Z,22.00
2018-05-19T05:25:41.396Z,25.40
2018-05-19T05:28:08.884Z,36.10
2018-05-19T05:30:36.357Z,32.10
2018-05-19T05:33:03.844Z,27.93
2018-05-19T05:35:31.327Z,26.80
2018-05-19T05:37:58.791Z,30.77
2018-05-19T05:40:26.279Z,29.47
2018-05-19T05:42:53.764Z,30.40
2018-05-19T05:45:21.253Z,30.80
2018-05-19T05:47:48.724Z,31.20
2018-05-19T05:50:16.282Z,45.47
2018-05-19T05:52:43.745Z,51.07
2018-05-19T05:55:11.224Z,38.80
2018-05-19T05:57:38.709Z,37.53
2018-05-19T06:00:06.183Z,34.30
2018-05-19T06:02:33.652Z,39.37
2018-05-19T06:05:01.135Z,37.73
2018-05-19T06:07:28.619Z,33.40
2018-05-19T06:09:56.104Z,34.40
2018-05-19T06:12:23.567Z,32.65
2018-05-19T06:14:51.044Z,40.30
2018-05-19T06:17:18.532Z,34.05
2018-05-19T06:19:46.005Z,32.43
2018-05-19T06:22:13.503Z,33.20
2018-05-19T06:24:40.973Z,36.30
2018-05-19T06:27:08.496Z,30.60
2018-05-19T06:29:35.939Z,33.72
2018-05-19T06:32:03.415Z,31.87
2018-05-19T06:34:30.911Z,32.27
2018-05-19T06:36:58.379Z,31.27
2018-05-19T06:39:25.863Z,30.40
2018-05-19T06:41:53.322Z,29.90
2018-05-19T06:44:20.784Z,28.17
2018-05-19T06:46:49.509Z,28.03
2018-05-19T06:49:16.989Z,28.03
2018-05-19T06:51:44.464Z,25.47
2018-05-19T06:54:11.925Z,25.45
2018-05-19T06:56:39.403Z,23.27
2018-05-19T06:59:06.872Z,24.17
2018-05-19T07:01:34.345Z,23.10
2018-05-19T07:04:01.850Z,27.00
2018-05-19T07:06:29.313Z,27.93
2018-05-19T07:08:56.806Z,25.88
2018-05-19T07:11:24.288Z,23.07
2018-05-19T07:13:51.747Z,25.10
2018-05-19T07:16:19.234Z,27.03
2018-05-19T07:18:46.695Z,24.83
2018-05-19T07:21:14.532Z,25.80
2018-05-19T07:23:41.999Z,27.60
2018-05-19T07:26:09.462Z,26.90
2018-05-19T07:28:36.959Z,27.93
2018-05-19T07:31:04.432Z,24.12
2018-05-19T07:33:32.045Z,21.20
2018-05-19T07:35:59.536Z,20.60
2018-05-19T07:38:27.007Z,20.07
2018-05-19T07:40:54.504Z,19.73
2018-05-19T07:43:21.965Z,19.80
2018-05-19T07:45:49.423Z,18.53
2018-05-19T07:48:17.107Z,20.05
2018-05-19T07:50:44.577Z,26.50
2018-05-19T07:53:12.073Z,20.17
2018-05-19T07:55:39.544Z,21.37
2018-05-19T07:58:07.019Z,22.37
2018-05-19T08:00:34.516Z,20.23
2018-05-19T08:03:01.981Z,22.43
2018-05-19T08:05:29.448Z,21.93
2018-05-19T08:07:56.936Z,22.57
2018-05-19T08:10:24.417Z,20.70
2018-05-19T08:12:51.900Z,19.97
2018-05-19T08:15:19.372Z,20.27
2018-05-19T08:17:46.848Z,19.37
2018-05-19T08:20:14.381Z,20.10
2018-05-19T08:22:42.525Z,19.37
2018-05-19T08:25:10.015Z,17.33
2018-05-19T08:27:37.489Z,17.10
2018-05-19T08:30:05.617Z,18.43
2018-05-19T08:32:33.100Z,17.90
2018-05-19T08:35:00.565Z,18.47
2018-05-19T08:37:28.044Z,19.50
2018-05-19T08:39:55.515Z,17.70
2018-05-19T08:42:23.000Z,16.53
2018-05-19T08:44:50.497Z,15.40
2018-05-19T08:47:17.995Z,16.10
2018-05-19T08:49:46.588Z,15.73
2018-05-19T08:52:14.105Z,16.62
2018-05-19T08:54:41.577Z,16.80
2018-05-19T08:57:09.071Z,16.30
2018-05-19T08:59:36.562Z,15.70
2018-05-19T09:02:04.044Z,17.70
2018-05-19T09:04:33.952Z,16.23
2018-05-19T09:07:01.428Z,13.10
2018-05-19T09:09:28.908Z,13.97
2018-05-19T09:11:56.365Z,16.60
2018-05-19T09:14:23.837Z,14.05
2018-05-19T09:16:51.323Z,14.67
2018-05-19T09:19:18.785Z,16.17
2018-05-19T09:21:46.289Z,16.60
2018-05-19T09:24:13.771Z,15.80
2018-05-19T09:26:41.233Z,16.87
2018-05-19T09:29:08.733Z,14.90
2018-05-19T09:31:36.207Z,16.90
2018-05-19T09:34:03.708Z,16.57
2018-05-19T09:36:31.173Z,17.58
2018-05-19T09:38:58.633Z,17.03
2018-05-19T09:41:26.107Z,15.80
2018-05-19T09:43:53.566Z,17.60
2018-05-19T09:46:21.055Z,16.17
2018-05-19T09:48:48.520Z,15.37
2018-05-19T09:51:16.213Z,17.70
2018-05-19T09:53:43.689Z,18.67
2018-05-19T09:56:11.158Z,17.93
2018-05-19T09:58:38.643Z,17.77
2018-05-19T10:01:06.103Z,17.40
2018-05-19T10:03:33.581Z,15.40
2018-05-19T10:06:01.083Z,19.73
2018-05-19T10:08:28.544Z,16.00
2018-05-19T10:10:56.017Z,15.30
2018-05-19T10:13:23.499Z,15.53
2018-05-19T10:15:50.980Z,15.52
2018-05-19T10:18:18.473Z,16.53
2018-05-19T10:20:46.396Z,19.50
2018-05-19T10:23:13.939Z,18.30
2018-05-19T10:25:41.372Z,18.93
2018-05-19T10:28:08.930Z,20.03
2018-05-19T10:30:36.824Z,18.17
2018-05-19T10:33:04.288Z,16.30
2018-05-19T10:35:31.838Z,17.80
2018-05-19T10:37:59.255Z,17.43
2018-05-19T10:40:26.723Z,19.90
2018-05-19T10:42:54.211Z,18.73
2018-05-19T10:45:22.613Z,18.80
2018-05-19T10:47:50.095Z,18.20
2018-05-19T10:50:17.552Z,15.13
2018-05-19T10:52:45.017Z,15.67
2018-05-19T10:55:12.497Z,18.40
2018-05-19T10:57:39.967Z,16.30
2018-05-19T11:00:07.447Z,20.90
2018-05-19T11:02:34.911Z,19.50
2018-05-19T11:05:02.371Z,17.87
2018-05-19T11:07:30.175Z,14.05
2018-05-19T11:09:57.719Z,15.87
2018-05-19T11:12:25.145Z,16.37
2018-05-19T11:14:52.614Z,15.93
2018-05-19T11:17:20.077Z,16.12
2018-05-19T11:19:47.566Z,17.67
2018-05-19T11:22:15.032Z,16.73
2018-05-19T11:24:42.525Z,17.70
2018-05-19T11:27:09.994Z,16.10
2018-05-19T11:29:37.490Z,13.63
2018-05-19T11:32:04.961Z,14.57
2018-05-19T11:34:32.439Z,14.53
2018-05-19T11:36:59.929Z,14.13
2018-05-19T11:39:27.407Z,16.13
2018-05-19T11:41:54.898Z,13.20
2018-05-19T11:44:22.365Z,15.23
2018-05-19T11:46:49.837Z,16.53
2018-05-19T11:49:17.326Z,17.13
2018-05-19T11:51:44.804Z,14.70
2018-05-19T11:54:12.308Z,18.40
2018-05-19T11:56:39.789Z,17.27
2018-05-19T11:59:07.256Z,16.13
2018-05-19T12:01:34.736Z,20.73
2018-05-19T12:04:02.205Z,20.70
2018-05-19T12:06:29.696Z,25.00
2018-05-19T12:08:57.168Z,24.83
2018-05-19T12:11:24.667Z,13.30
2018-05-19T12:13:52.130Z,7.90
2018-05-19T12:16:19.594Z,8.70
2018-05-19T12:18:47.070Z,7.20
2018-05-19T12:21:14.875Z,6.83
2018-05-19T12:23:42.364Z,5.90
2018-05-19T12:26:09.839Z,7.17
2018-05-19T12:28:37.319Z,6.87
2018-05-19T12:31:04.795Z,8.30
2018-05-19T12:33:32.265Z,7.50
2018-05-19T12:35:59.748Z,11.53
2018-05-19T12:38:27.220Z,10.73
2018-05-19T12:40:54.703Z,7.90
2018-05-19T12:43:22.163Z,6.30
2018-05-19T12:45:49.657Z,5.47
2018-05-19T12:48:17.122Z,5.27
2018-05-19T12:50:44.581Z,4.80
2018-05-19T12:53:12.056Z,4.53
2018-05-19T12:55:39.785Z,5.15
2018-05-19T12:58:07.261Z,6.63
2018-05-19T13:00:34.720Z,5.90
2018-05-19T13:03:02.183Z,6.60
2018-05-19T13:05:29.664Z,5.60
2018-05-19T13:07:57.132Z,6.33
2018-05-19T13:10:24.633Z,7.73
2018-05-19T13:12:52.090Z,6.10
2018-05-19T13:15:19.548Z,6.17
2018-05-19T13:17:47.032Z,5.10
2018-05-19T13:20:14.496Z,6.10
2018-05-19T13:22:41.978Z,7.50
2018-05-19T13:25:09.425Z,7.77
2018-05-19T13:27:36.884Z,6.32
2018-05-19T13:30:04.352Z,5.77
2018-05-19T13:32:31.800Z,8.70
2018-05-19T13:34:59.279Z,7.93
2018-05-19T13:37:26.753Z,6.67
2018-05-19T13:39:54.222Z,7.30
2018-05-19T13:42:21.700Z,6.80
2018-05-19T13:44:49.161Z,6.60
2018-05-19T13:47:16.635Z,4.93
2018-05-19T13:49:44.093Z,5.13
2018-05-19T13:52:11.611Z,4.90
2018-05-19T13:54:39.047Z,4.00
2018-05-19T13:57:06.508Z,3.57
2018-05-19T13:59:33.984Z,5.43
2018-05-19T14:02:01.446Z,3.80
2018-05-19T14:04:28.911Z,3.80
2018-05-19T14:06:56.381Z,3.33
2018-05-19T14:09:23.837Z,2.97
2018-05-19T14:11:51.314Z,3.80
2018-05-19T14:14:18.780Z,2.23
2018-05-19T14:16:46.240Z,3.20
2018-05-19T14:19:13.720Z,2.97
2018-05-19T14:21:41.948Z,2.20
2018-05-19T14:24:09.423Z,2.20
2018-05-19T14:26:36.885Z,3.33
2018-05-19T14:29:04.348Z,2.62
2018-05-19T14:31:31.830Z,2.30
2018-05-19T14:33:59.283Z,2.23
2018-05-19T14:36:26.772Z,3.10
2018-05-19T14:38:54.238Z,2.80
2018-05-19T14:41:21.705Z,3.33
2018-05-19T14:43:49.183Z,2.97
2018-05-19T14:46:16.638Z,3.17
2018-05-19T14:48:44.295Z,3.13
2018-05-19T14:51:11.764Z,3.00
2018-05-19T14:53:39.220Z,3.03
2018-05-19T14:56:06.704Z,3.80
2018-05-19T14:58:34.163Z,3.50
2018-05-19T15:01:01.632Z,3.80
2018-05-19T15:03:29.122Z,3.43
2018-05-19T15:05:56.616Z,4.05
2018-05-19T15:08:24.121Z,3.97
2018-05-19T15:10:51.584Z,3.43
2018-05-19T15:13:19.057Z,4.00
2018-05-19T15:15:46.531Z,4.53
2018-05-19T15:18:13.999Z,3.47
2018-05-19T15:20:41.480Z,3.27
2018-05-19T15:23:09.005Z,3.95
2018-05-19T15:25:36.574Z,4.00
2018-05-19T15:28:04.059Z,4.10
2018-05-19T15:30:31.535Z,3.47
2018-05-19T15:32:59.021Z,4.40
2018-05-19T15:35:26.488Z,4.15
2018-05-19T15:37:53.965Z,4.70
2018-05-19T15:40:21.432Z,7.53
2018-05-19T15:42:48.923Z,5.15
2018-05-19T15:45:16.392Z,4.78
2018-05-19T15:47:43.967Z,4.00
2018-05-19T15:50:11.356Z,4.40
2018-05-19T15:52:38.832Z,5.97
2018-05-19T15:55:06.305Z,5.20
2018-05-19T15:57:33.762Z,5.80
2018-05-19T16:00:01.231Z,5.60
2018-05-19T16:02:28.701Z,5.70
2018-05-19T16:04:56.170Z,6.37
2018-05-19T16:07:23.655Z,5.70
2018-05-19T16:09:51.116Z,5.00
2018-05-19T16:12:18.607Z,5.50
2018-05-19T16:14:46.085Z,5.97
2018-05-19T16:17:13.582Z,6.20
2018-05-19T16:19:41.061Z,5.90
2018-05-19T16:22:09.084Z,5.93
2018-05-19T16:24:36.553Z,5.77
2018-05-19T16:27:04.108Z,5.33
2018-05-19T16:29:31.533Z,8.37
2018-05-19T16:31:59.453Z,5.33
2018-05-19T16:34:26.923Z,5.23
2018-05-19T16:36:54.380Z,4.80
2018-05-19T16:39:21.882Z,6.70
2018-05-19T16:41:49.344Z,6.67
2018-05-19T16:44:16.854Z,4.87
2018-05-19T16:46:44.324Z,4.17
2018-05-19T16:49:11.787Z,3.90
2018-05-19T16:51:39.311Z,3.40
2018-05-19T16:54:06.794Z,4.30
2018-05-19T16:56:34.256Z,4.55
2018-05-19T16:59:01.725Z,4.40
2018-05-19T17:01:29.193Z,4.07
2018-05-19T17:03:56.721Z,5.27
2018-05-19T17:06:24.179Z,5.93
2018-05-19T17:08:51.644Z,6.57
2018-05-19T17:11:19.124Z,7.13
2018-05-19T17:13:46.599Z,55.43
2018-05-19T17:16:14.090Z,9.23
2018-05-19T17:18:41.549Z,8.00
2018-05-19T17:21:09.051Z,7.70
2018-05-19T17:23:36.508Z,7.55
2018-05-19T17:26:04.007Z,7.20
2018-05-19T17:28:31.545Z,7.87
2018-05-19T17:30:59.014Z,12.90
2018-05-19T17:33:26.598Z,8.60
2018-05-19T17:35:53.980Z,10.23
2018-05-19T17:38:21.443Z,9.60
2018-05-19T17:40:48.923Z,8.55
2018-05-19T17:43:17.420Z,8.70
2018-05-19T17:45:44.921Z,9.20
2018-05-19T17:48:12.478Z,8.27
2018-05-19T17:50:40.005Z,7.50
2018-05-19T17:53:07.536Z,10.98
2018-05-19T17:55:35.004Z,9.60
2018-05-19T17:58:02.507Z,8.60
2018-05-19T18:00:30.470Z,8.95
2018-05-19T18:02:57.949Z,8.33
2018-05-19T18:05:25.467Z,8.63
2018-05-19T18:07:52.990Z,8.47
2018-05-19T18:10:21.100Z,9.25
2018-05-19T18:12:48.574Z,9.83
2018-05-19T18:15:16.041Z,9.67
2018-05-19T18:17:43.519Z,12.83
2018-05-19T18:20:10.984Z,9.32
2018-05-19T18:22:38.476Z,9.00
2018-05-19T18:25:05.996Z,10.07
2018-05-19T18:27:33.511Z,8.40
2018-05-19T18:30:00.994Z,11.07
2018-05-19T18:32:28.452Z,7.10
2018-05-19T18:34:55.936Z,13.13
2018-05-19T18:37:23.411Z,29.63
2018-05-19T18:39:50.895Z,16.50
2018-05-19T18:42:18.391Z,9.07
2018-05-19T18:44:46.042Z,8.60
2018-05-19T18:47:13.482Z,10.07
2018-05-19T18:49:40.943Z,11.30
2018-05-19T18:52:08.425Z,9.77
2018-05-19T18:54:36.028Z,11.00
2018-05-19T18:57:03.576Z,44.28
2018-05-19T18:59:31.057Z,9.73
2018-05-19T19:01:58.634Z,9.30
2018-05-19T19:04:26.905Z,8.80
2018-05-19T19:06:54.364Z,9.52
2018-05-19T19:09:21.844Z,7.40
2018-05-19T19:11:49.303Z,6.80
2018-05-19T19:14:17.654Z,18.23
2018-05-19T19:16:45.278Z,8.70
2018-05-19T19:19:12.885Z,5.90
2018-05-19T19:21:40.807Z,6.37
2018-05-19T19:24:08.299Z,10.70
2018-05-19T19:26:35.792Z,6.97
2018-05-19T19:29:04.032Z,7.70
2018-05-19T19:31:32.528Z,7.93
2018-05-19T19:34:00.159Z,8.30
2018-05-19T19:36:27.945Z,8.30
2018-05-19T19:38:55.501Z,8.63
2018-05-19T19:41:23.465Z,10.48
2018-05-19T19:43:51.421Z,10.27
2018-05-19T19:46:18.987Z,9.20
2018-05-19T19:48:47.009Z,9.25
2018-05-19T19:51:14.482Z,10.37
2018-05-19T19:53:41.951Z,10.60
2018-05-19T19:56:09.893Z,10.00
2018-05-19T19:58:37.420Z,10.60
2018-05-19T20:01:05.027Z,10.43
2018-05-19T20:03:32.669Z,12.30
2018-05-19T20:06:00.270Z,10.10
2018-05-19T20:08:27.769Z,10.07
2018-05-19T20:10:55.337Z,9.33
2018-05-19T20:13:22.843Z,9.00
2018-05-19T20:15:50.315Z,9.30
2018-05-19T20:18:18.436Z,9.10
2018-05-19T20:20:46.264Z,12.00
2018-05-19T20:23:13.771Z,9.27
2018-05-19T20:25:41.366Z,9.07
2018-05-19T20:28:08.769Z,7.90
2018-05-19T20:30:36.263Z,7.47
2018-05-19T20:33:03.780Z,7.67
2018-05-19T20:35:31.309Z,9.53
2018-05-19T20:37:58.803Z,8.30
2018-05-19T20:40:26.296Z,9.07
2018-05-19T20:42:53.793Z,7.22
2018-05-19T20:45:21.276Z,8.80
2018-05-19T20:47:48.775Z,8.20
2018-05-19T20:50:16.339Z,8.20
2018-05-19T20:52:43.818Z,8.23
2018-05-19T20:55:11.312Z,8.60
2018-05-19T20:57:38.769Z,7.70
2018-05-19T21:00:06.226Z,9.65
2018-05-19T21:02:33.771Z,8.70
2018-05-19T21:05:01.304Z,9.10
2018-05-19T21:07:29.065Z,8.80
2018-05-19T21:09:56.541Z,9.02
2018-05-19T21:12:24.023Z,9.90
2018-05-19T21:14:51.495Z,8.68
2018-05-19T21:17:19.013Z,23.07
2018-05-19T21:19:46.525Z,26.23
2018-05-19T21:22:13.996Z,8.88
2018-05-19T21:24:41.455Z,8.70
2018-05-19T21:27:10.920Z,7.63
2018-05-19T21:29:38.436Z,7.90
2018-05-19T21:32:05.933Z,7.90
2018-05-19T21:34:33.387Z,9.60
2018-05-19T21:37:01.031Z,8.43
2018-05-19T21:39:28.495Z,8.97
2018-05-19T21:41:55.972Z,9.07
2018-05-19T21:44:23.439Z,8.40
2018-05-19T21:46:50.897Z,9.30
2018-05-19T21:49:18.391Z,7.90
2018-05-19T21:51:45.856Z,8.27
2018-05-19T21:54:13.336Z,9.07
2018-05-19T21:56:40.813Z,8.23
2018-05-19T21:59:08.294Z,7.50
2018-05-19T22:01:35.760Z,9.00
2018-05-19T22:04:03.210Z,8.37
2018-05-19T22:06:30.684Z,7.87
2018-05-19T22:08:58.199Z,7.80
2018-05-19T22:11:25.688Z,8.10
2018-05-19T22:13:53.157Z,8.77
2018-05-19T22:16:20.616Z,8.97
2018-05-19T22:18:48.141Z,7.60
2018-05-19T22:21:15.968Z,8.53
2018-05-19T22:23:43.478Z,8.70
2018-05-19T22:26:10.927Z,8.23
2018-05-19T22:28:38.395Z,8.63
2018-05-19T22:31:05.879Z,9.20
2018-05-19T22:33:33.336Z,8.73
2018-05-19T22:36:00.813Z,9.50
2018-05-19T22:38:28.277Z,8.77
2018-05-19T22:40:55.743Z,9.40
2018-05-19T22:43:23.227Z,9.83
2018-05-19T22:45:50.694Z,9.20
2018-05-19T22:48:18.179Z,9.27
2018-05-19T22:50:46.594Z,10.05
2018-05-19T22:53:14.060Z,10.82
2018-05-19T22:55:41.536Z,9.60
2018-05-19T22:58:09.003Z,12.07
2018-05-19T23:00:36.512Z,12.83
2018-05-19T23:03:03.988Z,12.75
2018-05-19T23:05:31.452Z,13.00
2018-05-19T23:07:58.944Z,11.87
2018-05-19T23:10:26.999Z,9.90
2018-05-19T23:12:54.754Z,10.40
2018-05-19T23:15:22.215Z,8.90
2018-05-19T23:17:49.684Z,9.03
2018-05-19T23:20:17.161Z,8.25
2018-05-19T23:22:44.629Z,9.77
2018-05-19T23:25:12.120Z,9.17
2018-05-19T23:27:39.585Z,8.70
2018-05-19T23:30:07.051Z,7.93
2018-05-19T23:32:34.552Z,10.10
2018-05-19T23:35:02.233Z,8.75
2018-05-19T23:37:29.719Z,8.37
2018-05-19T23:39:57.180Z,8.97
2018-05-19T23:42:24.640Z,10.70
2018-05-19T23:44:52.116Z,9.57
2018-05-19T23:47:19.577Z,9.37
2018-05-19T23:49:47.052Z,9.50
2018-05-19T23:52:14.531Z,11.88
2018-05-19T23:54:41.992Z,10.20
2018-05-19T23:57:09.484Z,10.93
2018-05-19T23:59:36.960Z,13.07
